Harnell Park, Minnesota
Current Conditions -  °F | °C
As of 7:55 AM on Friday 31 Oct 2014 (Local Time) from KDLH Reporting Station
Few Clouds Few Clouds  
Wind Chill: 17°   Ceiling: Unl
Heat Index: 25°   Visibility: 10mi
Dew Point: 16°   Wind: 7mph
Humidity: 69%   Direction: 340°NNW
Pressure: 30.5"   Gusts: NA
Location:  46.8859°N, 92.4258°W
Report Text: KDLH 311255Z 34006KT 10SM FEW030 M04/M09 A3050 RMK AO2 SLP353 T10391089 $
Loading
Personal Weather Stations






























Interactive Weather Map
Tropical Storm Tracking
New forecast layout! Learn more

10-Day Weather Forecast

Advertisements
Track Severe Weather on mobile